Time;durP1;ratioP1;P1;durP2;ratioP2;P2;SDS_P1;SDS_P2;PMS_P1;PMS_P2;Temp;Humidity;BMP_temperature;BMP_pressure;BME280_temperature;BME280_humidity;BME280_pressure;Samples;Min_cycle;Max_cycle;Signal;HPM_P1;HPM_P2
2023/03/06 00:02:08;;;;;;;5.60;3.08;;;;;;;2.86;69.76;94039.06;5138647;27;20196;-78
2023/03/06 00:04:35;;;;;;;3.78;2.65;;;;;;;2.80;70.04;94038.34;5138509;27;20243;-76
2023/03/06 00:07:02;;;;;;;11.52;4.82;;;;;;;2.70;70.65;94033.16;5152605;27;20193;-77
2023/03/06 00:09:29;;;;;;;12.45;6.15;;;;;;;2.75;71.08;94038.41;5138639;27;20613;-78
2023/03/06 00:11:55;;;;;;;11.20;4.60;;;;;;;2.72;70.68;94036.34;5138877;27;20200;-78
2023/03/06 00:14:23;;;;;;;11.45;5.00;;;;;;;2.93;69.89;94036.00;5138838;27;20236;-77
2023/03/06 00:16:54;;;;;;;15.75;8.55;;;;;;;2.97;69.46;94034.31;5138546;27;20250;-79
2023/03/06 00:19:20;;;;;;;18.95;10.32;;;;;;;3.03;68.89;94033.13;5136538;27;20221;-79
2023/03/06 00:21:47;;;;;;;19.60;10.27;;;;;;;3.07;68.68;94028.78;5145765;27;20195;-78
2023/03/06 00:24:14;;;;;;;15.27;9.75;;;;;;;3.02;68.54;94036.88;5139796;27;20228;-77
2023/03/06 00:26:41;;;;;;;19.33;10.40;;;;;;;3.02;68.48;94031.53;5141246;27;20205;-78
2023/03/06 00:29:08;;;;;;;14.15;8.68;;;;;;;3.08;67.51;94039.19;5152897;27;20725;-77
2023/03/06 00:31:36;;;;;;;14.63;9.50;;;;;;;3.03;67.90;94027.78;5135197;27;20663;-77
2023/03/06 00:34:04;;;;;;;20.27;10.45;;;;;;;2.90;69.13;94033.91;5134730;27;20247;-77
2023/03/06 00:36:30;;;;;;;7.18;4.22;;;;;;;2.91;69.08;94036.28;5145830;27;20294;-77
2023/03/06 00:38:57;;;;;;;6.90;4.18;;;;;;;2.90;68.92;94033.91;5142932;27;20196;-78
2023/03/06 00:41:24;;;;;;;7.65;4.25;;;;;;;3.08;66.99;94025.03;5148648;27;20257;-77
2023/03/06 00:43:50;;;;;;;9.65;4.13;;;;;;;3.05;67.10;94029.06;5143265;27;20281;-77
2023/03/06 00:46:17;;;;;;;8.57;4.43;;;;;;;3.09;67.54;94031.97;5133546;27;20599;-77
2023/03/06 00:48:45;;;;;;;7.68;4.20;;;;;;;3.07;67.46;94034.13;5143386;27;20204;-78
2023/03/06 00:51:12;;;;;;;8.63;4.05;;;;;;;3.16;66.67;94027.00;5133139;27;20648;-77
2023/03/06 00:53:39;;;;;;;9.73;4.43;;;;;;;3.23;65.82;94032.78;5131487;27;20986;-77
2023/03/06 00:56:07;;;;;;;8.70;4.10;;;;;;;3.29;66.05;94026.22;5145093;27;20205;-77
2023/03/06 00:58:36;;;;;;;7.43;3.60;;;;;;;3.27;65.72;94028.44;5144302;27;20192;-78
2023/03/06 01:01:02;;;;;;;8.68;3.80;;;;;;;3.15;66.21;94020.84;5138055;27;20215;-77
2023/03/06 01:03:30;;;;;;;6.70;3.25;;;;;;;3.19;65.85;94016.50;5139189;27;20288;-78
2023/03/06 01:05:58;;;;;;;7.20;3.65;;;;;;;3.19;66.45;94027.22;5145074;27;20208;-79
2023/03/06 01:08:24;;;;;;;7.20;3.47;;;;;;;3.25;65.60;94009.19;5144499;27;20200;-77
2023/03/06 01:10:51;;;;;;;7.97;5.13;;;;;;;3.28;65.32;94008.56;5131809;27;20205;-77
2023/03/06 01:13:18;;;;;;;7.72;4.13;;;;;;;3.36;65.10;94013.25;5144444;27;20698;-77
2023/03/06 01:15:45;;;;;;;13.95;5.13;;;;;;;3.36;65.40;94015.13;5137717;27;20283;-78
2023/03/06 01:18:11;;;;;;;4.78;2.88;;;;;;;3.43;65.76;94020.88;5139276;27;20273;-77
2023/03/06 01:20:38;;;;;;;10.02;3.53;;;;;;;3.43;65.34;94020.88;5145032;27;20259;-78
2023/03/06 01:23:06;;;;;;;8.38;4.00;;;;;;;3.42;64.99;94014.72;5144645;27;20253;-78
2023/03/06 01:25:33;;;;;;;7.97;4.20;;;;;;;3.38;65.55;94019.09;5137591;27;20371;-78
2023/03/06 01:28:00;;;;;;;8.02;2.25;;;;;;;3.29;65.53;94026.22;5137353;27;20246;-78
2023/03/06 01:30:26;;;;;;;5.45;3.38;;;;;;;3.21;65.98;94018.88;5144108;27;20205;-77
2023/03/06 01:32:53;;;;;;;5.13;3.55;;;;;;;3.18;66.36;94014.13;5145101;27;20261;-77
2023/03/06 01:35:20;;;;;;;6.03;3.22;;;;;;;3.15;66.52;94026.22;5142057;27;20197;-77
2023/03/06 01:37:47;;;;;;;13.57;5.93;;;;;;;3.17;66.49;94017.88;5131665;27;20212;-78
2023/03/06 01:40:15;;;;;;;15.10;5.72;;;;;;;3.18;66.61;94016.81;5143711;27;20208;-78
2023/03/06 01:42:42;;;;;;;4.28;3.22;;;;;;;3.14;66.59;94018.50;5145104;27;20234;-79
2023/03/06 01:45:48;;;;;;;4.72;2.88;;;;;;;3.06;66.93;94011.13;5131417;27;20236;-78
2023/03/06 01:48:15;;;;;;;9.07;4.25;;;;;;;3.08;67.23;94008.97;5137956;27;20370;-77
2023/03/06 01:50:42;;;;;;;9.60;4.30;;;;;;;3.05;67.11;94005.00;5137013;27;20259;-76
2023/03/06 01:53:09;;;;;;;7.45;4.00;;;;;;;3.01;67.23;94009.34;5144160;27;20655;-77
2023/03/06 01:55:37;;;;;;;13.00;5.18;;;;;;;2.99;67.34;94019.56;5130373;27;20213;-77
2023/03/06 01:58:07;;;;;;;6.70;4.10;;;;;;;3.03;67.08;94017.06;5129539;27;20205;-77
2023/03/06 02:00:34;;;;;;;8.68;4.20;;;;;;;2.95;67.82;94010.53;5144538;27;20207;-78
2023/03/06 02:03:05;;;;;;;12.77;4.93;;;;;;;2.91;68.22;94008.75;5130036;27;20293;-78
2023/03/06 02:05:32;;;;;;;6.57;3.45;;;;;;;2.90;67.54;94012.50;5144559;27;20606;-77
2023/03/06 02:08:01;;;;;;;10.57;3.67;;;;;;;2.90;67.66;94007.16;5139164;27;20730;-78
2023/03/06 02:10:28;;;;;;;5.20;2.10;;;;;;;2.85;67.63;94011.53;5137199;27;20201;-77
2023/03/06 02:12:56;;;;;;;6.07;3.92;;;;;;;2.79;67.69;94012.69;5141864;27;20284;-78
2023/03/06 02:15:25;;;;;;;9.23;4.63;;;;;;;2.85;68.11;94006.19;5143823;27;20266;-78
2023/03/06 02:17:53;;;;;;;11.45;5.80;;;;;;;2.75;68.15;94016.22;5140450;27;20216;-77
2023/03/06 02:20:26;;;;;;;7.13;3.65;;;;;;;2.74;68.02;94014.63;5137120;27;20252;-77
2023/03/06 02:23:01;;;;;;;6.82;4.10;;;;;;;2.72;67.97;94004.25;5139254;27;20565;-77
2023/03/06 02:25:36;;;;;;;12.15;6.03;;;;;;;2.69;68.21;94018.22;5143969;27;20698;-78
2023/03/06 02:28:04;;;;;;;14.50;5.43;;;;;;;2.57;68.16;94009.88;5144284;27;20188;-78
2023/03/06 02:30:31;;;;;;;9.88;2.95;;;;;;;2.61;68.16;94013.50;5130419;27;20200;-77
2023/03/06 02:32:58;;;;;;;9.45;4.25;;;;;;;2.56;68.69;94018.97;5130107;27;20285;-76
2023/03/06 02:35:26;;;;;;;9.93;5.22;;;;;;;2.49;68.95;94023.88;5140823;27;20197;-77
2023/03/06 02:37:54;;;;;;;12.05;5.60;;;;;;;2.47;69.29;94023.38;5131190;27;20276;-77
2023/03/06 02:40:22;;;;;;;5.13;2.38;;;;;;;2.48;69.30;94025.75;5141969;27;20268;-78
2023/03/06 02:42:55;;;;;;;5.78;3.72;;;;;;;2.45;69.09;94028.25;5143509;27;20252;-77
2023/03/06 02:45:25;;;;;;;18.77;10.48;;;;;;;2.41;69.61;94029.91;5139473;27;20240;-78
2023/03/06 02:47:52;;;;;;;6.03;4.03;;;;;;;2.37;69.78;94028.88;5132327;27;20346;-77
2023/03/06 02:50:19;;;;;;;4.65;2.47;;;;;;;2.34;69.88;94027.56;5129523;27;20221;-78
2023/03/06 02:52:45;;;;;;;21.48;11.25;;;;;;;2.34;69.55;94027.56;5133758;27;20200;-78
2023/03/06 02:55:12;;;;;;;18.40;10.07;;;;;;;2.33;69.83;94030.53;5139607;27;20249;-79
2023/03/06 02:57:39;;;;;;;18.05;10.18;;;;;;;2.32;69.49;94023.63;5129962;27;20201;-78
2023/03/06 03:00:09;;;;;;;20.13;10.00;;;;;;;2.42;69.32;94031.47;5140517;27;20200;-79
2023/03/06 03:02:36;;;;;;;15.75;9.60;;;;;;;2.43;69.23;94035.75;5146023;27;20220;-80
2023/03/06 03:05:04;;;;;;;19.77;9.60;;;;;;;2.44;69.04;94030.13;5141271;27;20300;-78
2023/03/06 03:07:30;;;;;;;18.38;10.38;;;;;;;2.41;69.37;94037.91;5130620;27;20632;-81
2023/03/06 03:09:57;;;;;;;20.65;11.25;;;;;;;2.40;69.43;94036.31;5141335;27;20204;-78
2023/03/06 03:12:24;;;;;;;21.88;11.48;;;;;;;2.37;70.22;94034.22;5144871;27;20656;-78
2023/03/06 03:14:51;;;;;;;21.65;10.85;;;;;;;2.36;70.01;94029.97;5141202;27;20227;-78
2023/03/06 03:17:19;;;;;;;17.02;5.95;;;;;;;2.27;71.00;94039.72;5145152;27;20217;-78
2023/03/06 03:19:46;;;;;;;8.95;3.92;;;;;;;2.04;72.73;94044.88;5129183;27;20197;-78
2023/03/06 03:22:13;;;;;;;12.38;5.32;;;;;;;1.81;73.96;94056.38;5143841;27;20296;-78
2023/03/06 03:24:40;;;;;;;15.02;5.95;;;;;;;1.76;74.87;94051.13;5141574;27;20934;-78
2023/03/06 03:27:07;;;;;;;12.77;6.95;;;;;;;1.75;75.21;94052.19;5130887;27;20216;-79
2023/03/06 03:29:34;;;;;;;20.70;6.07;;;;;;;1.79;75.04;94056.66;5142956;27;20632;-78
2023/03/06 03:32:01;;;;;;;15.23;6.85;;;;;;;1.55;75.69;94047.09;5128709;28;20207;-79
2023/03/06 03:34:29;;;;;;;14.02;6.40;;;;;;;1.49;76.33;94051.72;5131993;27;20293;-78
2023/03/06 03:36:56;;;;;;;15.40;6.40;;;;;;;1.47;76.44;94053.06;5150077;27;20223;-78
2023/03/06 03:39:23;;;;;;;9.25;5.18;;;;;;;1.38;76.48;94053.69;5135400;27;20685;-79
2023/03/06 03:41:49;;;;;;;11.32;5.95;;;;;;;1.38;77.04;94059.03;5142715;27;20662;-77
2023/03/06 03:44:16;;;;;;;12.23;5.00;;;;;;;1.34;77.18;94060.69;5143085;27;20249;-77
2023/03/06 03:46:43;;;;;;;7.75;4.45;;;;;;;1.38;76.88;94067.03;5136651;27;20209;-78
2023/03/06 03:49:10;;;;;;;10.38;5.25;;;;;;;1.35;76.64;94064.94;5135651;27;20229;-79
2023/03/06 03:51:38;;;;;;;11.93;5.80;;;;;;;1.07;77.34;94065.78;5141988;27;20246;-80
2023/03/06 03:54:05;;;;;;;23.23;13.02;;;;;;;1.01;78.02;94069.56;5142894;27;20196;-79
2023/03/06 03:56:33;;;;;;;23.50;13.20;;;;;;;0.94;78.47;94066.44;5136370;27;20283;-78
2023/03/06 03:59:00;;;;;;;21.80;12.75;;;;;;;1.00;78.30;94082.09;5149506;27;20670;-78
2023/03/06 04:01:27;;;;;;;22.35;12.63;;;;;;;1.04;78.31;94074.34;5141525;27;20201;-78
2023/03/06 04:03:54;;;;;;;23.77;12.75;;;;;;;0.97;78.33;94081.84;5129774;27;20217;-78
2023/03/06 04:06:20;;;;;;;22.27;13.30;;;;;;;0.89;79.04;94077.13;5141146;27;20881;-79
2023/03/06 04:08:48;;;;;;;26.65;13.45;;;;;;;1.01;79.48;94085.56;5142550;27;20662;-79
2023/03/06 04:11:15;;;;;;;24.35;13.32;;;;;;;1.08;79.60;94083.38;5128781;28;20256;-79
2023/03/06 04:13:42;;;;;;;25.52;13.43;;;;;;;0.97;78.50;94079.19;5130757;27;20656;-78
2023/03/06 04:16:09;;;;;;;26.83;13.63;;;;;;;1.15;78.98;94081.16;5140308;27;20233;-79
2023/03/06 04:18:36;;;;;;;23.38;13.20;;;;;;;1.16;78.84;94080.06;5145091;27;20295;-79
2023/03/06 04:21:03;;;;;;;12.93;6.03;;;;;;;1.16;79.97;94082.75;5143364;27;20204;-79
2023/03/06 04:23:30;;;;;;;11.68;6.07;;;;;;;1.16;78.85;94087.28;5135232;27;20253;-79
2023/03/06 04:25:58;;;;;;;9.48;5.10;;;;;;;1.23;78.63;94093.88;5153204;27;20642;-79
2023/03/06 04:28:26;;;;;;;18.83;6.93;;;;;;;1.15;78.31;94081.16;5135584;27;20197;-79
2023/03/06 04:30:52;;;;;;;14.23;6.18;;;;;;;1.30;78.62;94094.34;5132517;27;20208;-79
2023/03/06 04:33:19;;;;;;;15.35;7.15;;;;;;;1.40;78.80;94094.22;5148689;27;20197;-79
2023/03/06 04:35:46;;;;;;;12.75;7.97;;;;;;;1.63;78.62;94091.84;5143543;27;20617;-79
2023/03/06 04:38:13;;;;;;;17.30;7.93;;;;;;;1.76;77.68;94085.81;5138583;27;20197;-78
2023/03/06 04:40:40;;;;;;;11.55;6.70;;;;;;;1.63;77.19;94091.84;5141433;27;20571;-78
2023/03/06 04:43:08;;;;;;;16.27;7.53;;;;;;;1.55;77.46;94095.13;5146317;27;20631;-78
2023/03/06 04:45:35;;;;;;;12.80;6.88;;;;;;;1.58;77.99;94094.56;5144116;27;20235;-79
2023/03/06 04:48:02;;;;;;;12.18;7.00;;;;;;;1.71;77.96;94100.03;5153103;27;20262;-80
2023/03/06 04:50:31;;;;;;;11.43;6.15;;;;;;;1.75;76.80;94093.03;5141167;27;20274;-79
2023/03/06 04:53:03;;;;;;;9.63;4.40;;;;;;;1.58;77.50;94099.91;5146375;27;20255;-80
2023/03/06 04:55:30;;;;;;;30.73;14.40;;;;;;;1.40;77.76;94088.88;5132274;27;20222;-80
2023/03/06 04:57:58;;;;;;;25.80;14.48;;;;;;;1.42;78.06;94102.75;5127497;27;20205;-79
2023/03/06 05:00:30;;;;;;;25.38;14.00;;;;;;;1.69;78.02;94101.38;5146463;27;20226;-78
2023/03/06 05:02:57;;;;;;;23.95;12.73;;;;;;;1.87;77.57;94103.31;5140358;27;20227;-79
2023/03/06 05:05:25;;;;;;;26.92;13.88;;;;;;;1.88;77.44;94099.56;5153199;27;20228;-78
2023/03/06 05:07:52;;;;;;;21.50;13.48;;;;;;;2.13;76.17;94096.56;5140456;27;20206;-86
2023/03/06 05:10:20;;;;;;;25.90;13.98;;;;;;;1.88;76.00;94099.56;5139463;27;20686;-82
2023/03/06 05:12:47;;;;;;;24.38;13.55;;;;;;;1.76;77.42;94101.84;5144100;27;20208;-85
2023/03/06 05:15:14;;;;;;;9.38;5.22;;;;;;;1.81;77.04;94098.31;5133241;27;20233;-82
2023/03/06 05:17:43;;;;;;;15.88;6.78;;;;;;;1.97;76.30;94103.16;5150945;27;20216;-82
2023/03/06 05:20:11;;;;;;;12.82;6.78;;;;;;;1.90;76.43;94101.94;5141119;27;20196;-82
2023/03/06 05:22:38;;;;;;;15.10;7.00;;;;;;;1.87;76.20;94108.66;5139131;27;20208;-85
2023/03/06 05:25:06;;;;;;;7.00;4.85;;;;;;;1.96;76.18;94112.25;5133785;27;20286;-81
2023/03/06 05:27:33;;;;;;;14.23;7.15;;;;;;;1.92;76.51;94105.91;5132328;27;20212;-83
2023/03/06 05:30:04;;;;;;;19.55;6.18;;;;;;;2.23;75.43;94121.53;5135579;27;20200;-83
2023/03/06 05:32:31;;;;;;;12.13;6.32;;;;;;;2.40;75.00;94111.94;5141963;27;20262;-82
2023/03/06 05:34:59;;;;;;;13.25;6.55;;;;;;;2.59;74.45;94109.28;5137857;27;20273;-82
2023/03/06 05:37:26;;;;;;;11.77;5.15;;;;;;;2.54;73.86;94106.66;5151201;27;20719;-82
2023/03/06 05:39:53;;;;;;;16.70;7.80;;;;;;;2.41;73.92;94096.72;5147487;27;20991;-85
2023/03/06 05:42:19;;;;;;;8.32;4.85;;;;;;;2.29;74.09;94104.38;5139218;27;20188;-83
2023/03/06 05:44:46;;;;;;;19.08;8.70;;;;;;;2.26;74.19;94104.94;5133275;27;20253;-82
2023/03/06 05:47:13;;;;;;;13.13;5.85;;;;;;;2.18;74.21;94113.59;5143894;27;20993;-87
2023/03/06 05:49:40;;;;;;;8.38;5.32;;;;;;;2.21;74.12;94108.47;5138251;27;20272;-81
2023/03/06 05:52:11;;;;;;;7.25;3.75;;;;;;;2.76;72.64;94104.19;5140225;27;20611;-81
2023/03/06 05:54:38;;;;;;;9.70;6.03;;;;;;;3.37;70.42;94103.16;5136965;27;20193;-83
2023/03/06 05:57:05;;;;;;;20.83;3.90;;;;;;;4.39;66.44;94096.56;5144762;27;20192;-80
2023/03/06 05:59:33;;;;;;;7.93;4.82;;;;;;;4.92;64.06;94110.09;5131626;27;20725;-81
2023/03/06 06:02:02;;;;;;;11.30;5.97;;;;;;;5.56;62.58;94110.69;5144987;27;20233;-82
2023/03/06 06:04:29;;;;;;;10.70;5.97;;;;;;;5.75;61.49;94115.81;5141708;27;20310;-82
2023/03/06 06:06:58;;;;;;;14.73;6.72;;;;;;;5.59;61.84;94122.72;5142385;27;20220;-82
2023/03/06 06:09:27;;;;;;;11.50;5.75;;;;;;;5.09;62.51;94124.75;5139932;27;20196;-82
2023/03/06 06:11:56;;;;;;;10.55;5.35;;;;;;;4.73;63.78;94120.22;5139156;27;20675;-83
2023/03/06 06:14:23;;;;;;;6.97;3.53;;;;;;;4.74;63.45;94129.88;5134704;27;20225;-82
2023/03/06 06:16:50;;;;;;;7.00;4.35;;;;;;;5.50;61.81;94136.06;5136831;27;20292;-82
2023/03/06 06:19:19;;;;;;;16.73;6.07;;;;;;;5.30;61.49;94137.38;5132449;27;20192;-87
2023/03/06 06:21:47;;;;;;;10.23;5.95;;;;;;;5.83;60.48;94128.50;5145368;27;20236;-82
2023/03/06 06:24:15;;;;;;;9.57;5.05;;;;;;;6.01;60.38;94132.09;5140901;27;20287;-80
2023/03/06 06:26:43;;;;;;;14.77;7.80;;;;;;;6.62;58.61;94131.13;5135450;27;20288;-82
2023/03/06 06:29:10;;;;;;;16.98;6.15;;;;;;;7.14;56.53;94121.16;5133018;27;20201;-81
2023/03/06 06:31:37;;;;;;;15.55;6.20;;;;;;;7.82;55.05;94119.44;5134593;27;20211;-83
2023/03/06 06:34:05;;;;;;;10.23;5.60;;;;;;;7.59;54.38;94117.28;5149910;27;20192;-81
2023/03/06 06:36:32;;;;;;;11.60;6.22;;;;;;;7.51;55.13;94121.59;5133473;27;20197;-83
2023/03/06 06:38:59;;;;;;;14.02;6.97;;;;;;;7.95;53.79;94120.34;5142515;27;20253;-83
2023/03/06 06:41:27;;;;;;;11.70;5.55;;;;;;;7.68;54.14;94121.53;5138667;27;20577;-84
2023/03/06 06:43:55;;;;;;;9.40;5.18;;;;;;;7.10;55.97;94122.94;5141255;27;20201;-84
2023/03/06 06:46:22;;;;;;;12.63;6.43;;;;;;;7.22;56.19;94134.97;5135406;27;20277;-82
2023/03/06 06:48:49;;;;;;;10.70;5.47;;;;;;;7.47;55.06;94142.22;5140141;27;20224;-81
2023/03/06 06:51:18;;;;;;;9.63;5.13;;;;;;;7.67;54.17;94140.72;5145802;27;20201;-80
2023/03/06 06:53:45;;;;;;;13.82;8.27;;;;;;;7.28;55.26;94152.53;5144368;27;20686;-86
2023/03/06 06:56:12;;;;;;;19.08;7.43;;;;;;;7.57;54.79;94131.09;5137689;27;20259;-82
2023/03/06 06:58:39;;;;;;;16.77;7.55;;;;;;;7.97;54.12;94138.91;5140389;27;20193;-83
2023/03/06 07:01:08;;;;;;;14.15;5.85;;;;;;;8.76;51.42;94136.31;5145553;27;20739;-82
2023/03/06 07:03:40;;;;;;;13.00;6.80;;;;;;;8.10;52.72;94138.69;5151494;27;20197;-85
2023/03/06 07:06:07;;;;;;;13.85;5.68;;;;;;;8.54;51.66;94142.81;5143556;27;20304;-86
2023/03/06 07:08:34;;;;;;;13.73;7.20;;;;;;;7.93;52.80;94137.94;5151736;27;20196;-84
2023/03/06 07:11:07;;;;;;;11.10;7.32;;;;;;;7.61;53.90;94132.03;5138286;27;20204;-82
2023/03/06 07:13:34;;;;;;;11.57;6.70;;;;;;;7.04;55.59;94144.94;5151977;27;20824;-85
2023/03/06 07:16:01;;;;;;;13.05;6.65;;;;;;;7.38;55.56;94138.75;5130717;27;20711;-80
2023/03/06 07:18:29;;;;;;;12.50;7.32;;;;;;;7.40;54.71;94131.91;5144761;27;20208;-85
2023/03/06 07:20:57;;;;;;;15.57;7.57;;;;;;;7.17;55.61;94152.06;5141005;27;20237;-83
2023/03/06 07:23:25;;;;;;;10.48;4.85;;;;;;;7.38;54.13;94149.53;5138227;27;20197;-81
2023/03/06 07:25:52;;;;;;;14.05;6.72;;;;;;;6.92;55.42;94150.97;5146189;27;20248;-83
2023/03/06 07:28:18;;;;;;;15.30;8.00;;;;;;;7.00;55.68;94147.47;5134351;27;20196;-82
2023/03/06 07:30:45;;;;;;;13.93;8.00;;;;;;;7.36;54.72;94143.66;5151055;27;20211;-82
2023/03/06 07:33:12;;;;;;;10.45;4.32;;;;;;;6.94;54.95;94143.34;5134673;27;20197;-84
2023/03/06 07:35:56;;;;;;;14.43;6.97;;;;;;;6.73;56.81;94153.13;5142695;27;20214;-83
2023/03/06 07:38:23;;;;;;;15.30;7.60;;;;;;;6.70;56.37;94159.16;5138690;27;20196;-81
2023/03/06 07:40:51;;;;;;;18.90;8.27;;;;;;;7.08;64.65;94151.28;5139856;27;20197;-75
2023/03/06 07:43:18;;;;;;;16.25;7.78;;;;;;;6.55;59.09;94162.31;5143624;27;20902;-77
2023/03/06 07:45:45;;;;;;;20.48;8.88;;;;;;;7.04;58.76;94159.19;5142583;27;20224;-85
2023/03/06 07:48:12;;;;;;;17.63;8.80;;;;;;;7.13;56.28;94161.88;5129829;27;20229;-79
2023/03/06 07:50:40;;;;;;;13.95;7.88;;;;;;;7.29;55.48;94140.63;5143175;27;20217;-78
2023/03/06 07:53:09;;;;;;;14.93;7.15;;;;;;;6.98;56.45;94155.06;5136717;27;20192;-80
2023/03/06 07:55:35;;;;;;;24.38;9.00;;;;;;;7.03;56.79;94160.28;5155073;27;20204;-86
2023/03/06 07:58:02;;;;;;;14.45;6.50;;;;;;;6.48;57.25;94162.75;5142673;27;20727;-85
2023/03/06 08:00:29;;;;;;;14.63;7.28;;;;;;;6.67;57.18;94163.28;5144633;27;20221;-82
2023/03/06 08:02:56;;;;;;;13.43;8.13;;;;;;;7.26;56.02;94152.84;5135017;27;20663;-85
2023/03/06 08:05:22;;;;;;;13.15;6.95;;;;;;;7.20;55.59;94158.72;5134746;27;20254;-86
2023/03/06 08:07:49;;;;;;;11.00;6.20;;;;;;;6.77;56.29;94162.19;5148368;27;20232;-89
2023/03/06 08:10:17;;;;;;;14.85;6.15;;;;;;;6.59;57.36;94168.63;5149255;27;20200;-86
2023/03/06 08:12:44;;;;;;;10.68;5.13;;;;;;;6.43;57.29;94160.19;5145902;27;20196;-82
2023/03/06 08:15:12;;;;;;;18.83;9.10;;;;;;;6.36;58.38;94162.56;5157715;27;20281;-86
2023/03/06 08:17:40;;;;;;;18.55;8.00;;;;;;;6.60;57.56;94156.75;5144648;27;20207;-86
2023/03/06 08:20:10;;;;;;;13.90;8.05;;;;;;;6.96;56.68;94149.22;5140932;27;20254;-85
2023/03/06 08:22:37;;;;;;;16.45;8.18;;;;;;;7.54;55.45;94142.50;5136279;27;20258;-86
2023/03/06 08:25:05;;;;;;;19.67;8.43;;;;;;;7.90;54.70;94146.72;5151926;27;20208;-86
2023/03/06 08:27:34;;;;;;;15.35;7.80;;;;;;;7.84;54.04;94141.47;5145966;27;20272;-85
2023/03/06 08:30:01;;;;;;;14.02;7.90;;;;;;;7.87;53.62;94140.06;5148866;27;20199;-85
2023/03/06 08:32:28;;;;;;;19.80;9.02;;;;;;;7.68;53.70;94145.81;5145411;27;20308;-85
2023/03/06 08:34:55;;;;;;;14.85;7.57;;;;;;;8.00;54.08;94149.06;5148274;27;20273;-85
2023/03/06 08:37:22;;;;;;;16.25;7.95;;;;;;;7.54;54.01;94147.88;5135608;27;20205;-82
2023/03/06 08:39:51;;;;;;;16.80;8.05;;;;;;;7.44;54.81;94143.63;5150027;27;20294;-89
2023/03/06 08:42:18;;;;;;;13.32;6.10;;;;;;;7.34;54.94;94148.56;5149355;27;20197;-90
2023/03/06 08:44:47;;;;;;;19.30;6.53;;;;;;;7.29;55.38;94148.72;5140895;27;20192;-82
2023/03/06 08:47:13;;;;;;;14.45;7.70;;;;;;;7.35;56.26;94150.16;5142682;27;20305;-86
2023/03/06 08:49:40;;;;;;;18.83;8.98;;;;;;;7.61;54.51;94150.13;5146178;27;20254;-87
2023/03/06 08:52:07;;;;;;;13.57;6.90;;;;;;;7.46;54.38;94154.09;5135177;27;20253;-86
2023/03/06 08:54:35;;;;;;;15.13;8.00;;;;;;;7.55;54.78;94148.69;5140625;27;20207;-85
2023/03/06 08:57:01;;;;;;;16.13;7.07;;;;;;;7.38;54.80;94149.53;5144208;27;20779;-84
2023/03/06 08:59:28;;;;;;;14.98;7.50;;;;;;;7.88;53.96;94140.84;5140322;27;20223;-84
2023/03/06 09:01:56;;;;;;;34.80;9.30;;;;;;;8.08;53.46;94140.91;5155966;27;20248;-89
2023/03/06 09:04:23;;;;;;;18.13;8.98;;;;;;;7.93;53.89;94130.66;5159182;27;20196;-86
2023/03/06 09:06:50;;;;;;;16.65;8.50;;;;;;;8.07;53.08;94138.53;5141877;27;20301;-88
2023/03/06 09:09:17;;;;;;;19.55;8.90;;;;;;;8.11;53.37;94131.38;5156042;27;20208;-86
2023/03/06 09:11:44;;;;;;;20.83;8.70;;;;;;;8.41;52.58;94133.03;5141855;27;20219;-88
2023/03/06 09:14:11;;;;;;;12.45;6.43;;;;;;;8.55;52.07;94132.78;5154680;27;20207;-83
2023/03/06 09:16:39;;;;;;;13.30;6.20;;;;;;;8.47;52.03;94136.34;5143281;27;20197;-84
2023/03/06 09:19:07;;;;;;;18.55;8.90;;;;;;;8.17;52.95;94128.22;5134323;27;20205;-81
2023/03/06 09:21:34;;;;;;;18.88;6.25;;;;;;;8.24;53.25;94133.06;5147838;27;20197;-85
2023/03/06 09:24:01;;;;;;;24.20;9.20;;;;;;;8.23;53.38;94123.41;5135979;27;20201;-88
2023/03/06 09:26:27;;;;;;;14.13;7.47;;;;;;;8.78;52.19;94133.28;5149938;27;20717;-87
2023/03/06 09:28:54;;;;;;;17.40;9.85;;;;;;;8.62;51.39;94134.97;5134214;27;20227;-87
2023/03/06 09:31:21;;;;;;;18.25;9.57;;;;;;;8.51;52.32;94138.03;5148449;27;20281;-88
2023/03/06 09:33:48;;;;;;;10.15;5.97;;;;;;;8.69;52.04;94124.44;5137567;27;20201;-85
2023/03/06 09:36:18;;;;;;;12.95;7.78;;;;;;;8.82;51.20;94123.41;5134841;27;20291;-82
2023/03/06 09:38:47;;;;;;;14.65;7.82;;;;;;;8.73;51.42;94133.50;5133855;27;20204;-86
2023/03/06 09:41:27;;;;;;;17.27;8.80;;;;;;;8.87;51.55;94123.22;5150047;27;20224;-87
2023/03/06 09:44:03;;;;;;;19.77;9.18;;;;;;;9.24;50.72;94114.19;5143869;27;20242;-87
2023/03/06 09:46:41;;;;;;;21.42;12.95;;;;;;;9.48;50.43;94126.19;5133449;27;20300;-89
2023/03/06 09:49:29;;;;;;;18.58;8.48;;;;;;;9.59;50.50;94117.34;5136721;27;20220;-86
2023/03/06 09:52:10;;;;;;;16.52;8.77;;;;;;;8.88;50.74;94108.59;5154120;27;20210;-89
2023/03/06 09:54:43;;;;;;;15.63;7.63;;;;;;;9.34;50.34;94104.06;5158380;27;20193;-83
2023/03/06 09:57:20;;;;;;;20.40;7.55;;;;;;;9.70;50.06;94104.22;5136076;27;20203;-84
2023/03/06 09:59:50;;;;;;;16.27;7.78;;;;;;;9.79;49.33;94098.69;5142967;27;20699;-87
2023/03/06 10:02:24;;;;;;;18.52;7.40;;;;;;;9.86;49.90;94098.91;5156754;27;20184;-88
2023/03/06 10:04:58;;;;;;;20.33;9.02;;;;;;;10.25;49.01;94100.25;5142999;27;20191;-80
2023/03/06 10:07:36;;;;;;;20.50;8.45;;;;;;;10.17;48.49;94092.97;5143099;27;20268;-85
2023/03/06 10:10:07;;;;;;;15.55;8.23;;;;;;;10.07;48.81;94093.44;5145288;27;20197;-85
2023/03/06 10:12:38;;;;;;;15.45;8.25;;;;;;;10.31;48.34;94090.75;5151072;27;20190;-88
2023/03/06 10:15:14;;;;;;;17.75;7.00;;;;;;;10.22;48.06;94087.38;5144530;27;20233;-90
2023/03/06 10:17:42;;;;;;;14.60;7.32;;;;;;;10.32;48.11;94084.22;5138455;27;20181;-81
2023/03/06 10:20:21;;;;;;;19.98;11.75;;;;;;;10.57;47.87;94088.47;5154793;27;20200;-84
2023/03/06 10:23:02;;;;;;;16.20;8.00;;;;;;;10.37;47.78;94084.00;5145246;27;20245;-89
2023/03/06 10:25:33;;;;;;;9.63;5.13;;;;;;;10.28;48.08;94078.69;5153029;27;20196;-83
2023/03/06 10:28:09;;;;;;;15.65;7.20;;;;;;;10.71;47.36;94073.78;5148161;27;20211;-85
2023/03/06 10:30:43;;;;;;;12.98;6.55;;;;;;;11.09;46.75;94074.13;5134591;27;20223;-84
2023/03/06 10:33:21;;;;;;;13.73;7.03;;;;;;;11.34;46.94;94075.63;5151283;27;20232;-84
2023/03/06 10:35:53;;;;;;;18.92;8.48;;;;;;;11.25;46.97;94072.28;5148352;27;20275;-87
2023/03/06 10:38:24;;;;;;;17.88;9.02;;;;;;;11.48;45.45;94063.63;5142469;27;20208;-87
2023/03/06 10:41:06;;;;;;;13.13;6.50;;;;;;;10.90;46.63;94057.72;5143181;27;20221;-87
2023/03/06 10:43:33;;;;;;;16.48;6.60;;;;;;;10.81;46.90;94057.06;5139902;27;20742;-82
2023/03/06 10:46:00;;;;;;;18.42;8.35;;;;;;;11.29;47.27;94056.91;5139442;27;20233;-86
2023/03/06 10:48:29;;;;;;;15.55;7.43;;;;;;;12.12;45.17;94054.41;5141198;27;20253;-87
2023/03/06 10:51:16;;;;;;;20.75;11.23;;;;;;;12.41;42.76;94051.25;5156378;27;20208;-85
2023/03/06 10:53:55;;;;;;;17.23;10.15;;;;;;;12.12;43.66;94038.13;5146656;27;20243;-86
2023/03/06 10:56:30;;;;;;;20.75;11.18;;;;;;;11.84;44.20;94035.50;5159077;27;20192;-84
2023/03/06 10:59:10;;;;;;;19.23;10.82;;;;;;;12.08;43.52;94030.69;5140898;27;20226;-88
2023/03/06 11:01:38;;;;;;;17.15;9.57;;;;;;;12.01;44.24;94032.44;5137037;27;20262;-81
2023/03/06 11:04:17;;;;;;;16.90;9.65;;;;;;;12.56;42.91;94025.19;5148166;27;20619;-85
2023/03/06 11:06:44;;;;;;;16.70;9.80;;;;;;;13.32;42.15;94010.88;5144341;27;20861;-85
2023/03/06 11:09:21;;;;;;;18.23;10.75;;;;;;;13.04;41.83;94010.28;5140409;27;20204;-81
2023/03/06 11:11:48;;;;;;;16.05;9.40;;;;;;;12.75;42.38;94001.53;5141083;27;20252;-80
2023/03/06 11:14:17;;;;;;;21.80;11.40;;;;;;;11.97;45.38;94016.06;5150098;27;20568;-85
2023/03/06 11:16:51;;;;;;;20.95;9.88;;;;;;;12.25;44.25;94007.03;5149866;27;20803;-86
2023/03/06 11:19:21;;;;;;;18.67;9.80;;;;;;;13.08;42.00;94008.41;5142858;27;20198;-86
2023/03/06 11:22:00;;;;;;;17.30;9.73;;;;;;;13.14;42.05;94002.34;5141985;27;20196;-86
2023/03/06 11:24:36;;;;;;;17.70;9.35;;;;;;;12.28;43.23;93992.75;5146008;27;20805;-85
2023/03/06 11:27:15;;;;;;;11.10;6.30;;;;;;;12.31;43.48;93986.56;5146768;27;20220;-88
2023/03/06 11:29:45;;;;;;;15.93;8.45;;;;;;;12.43;42.84;93978.34;5153645;27;20191;-84
2023/03/06 11:32:19;;;;;;;15.45;8.88;;;;;;;12.71;42.52;93984.34;5149994;27;20298;-84
2023/03/06 11:34:52;;;;;;;16.98;9.15;;;;;;;12.64;43.42;93978.78;5151651;27;20214;-84
2023/03/06 11:37:29;;;;;;;15.30;9.20;;;;;;;12.81;43.17;93961.28;5152572;27;20257;-85
2023/03/06 11:40:05;;;;;;;15.25;8.55;;;;;;;12.65;42.63;93964.06;5159933;27;20185;-82
2023/03/06 11:42:37;;;;;;;13.50;6.68;;;;;;;12.56;42.44;93954.56;5152697;27;20195;-82